Time;durP1;ratioP1;P1;durP2;ratioP2;P2;SDS_P1;SDS_P2;PMS_P1;PMS_P2;Temp;Humidity;BMP_temperature;BMP_pressure;BME280_temperature;BME280_humidity;BME280_pressure;Samples;Min_cycle;Max_cycle;Signal;HPM_P1;HPM_P2
2021/12/21 00:00:23;;;;;;;26.90;18.83;;;-3.40;99.90;;;;;;4973610;28;20110;-75
2021/12/21 00:02:52;;;;;;;24.33;18.55;;;-3.50;99.90;;;;;;4974508;28;20029;-75
2021/12/21 00:05:20;;;;;;;27.92;15.68;;;-3.40;99.90;;;;;;4973791;28;20025;-76
2021/12/21 00:07:49;;;;;;;26.40;20.70;;;-3.50;99.90;;;;;;4973559;28;20122;-75
2021/12/21 00:10:16;;;;;;;28.45;22.08;;;-3.50;99.90;;;;;;4973880;28;20022;-76
2021/12/21 00:13:23;;;;;;;25.27;20.48;;;-3.50;99.90;;;;;;4974006;28;20046;-75
2021/12/21 00:15:57;;;;;;;28.23;22.33;;;-3.40;99.90;;;;;;4972492;28;20341;-75
2021/12/21 00:18:41;;;;;;;22.67;18.52;;;-3.40;99.90;;;;;;4969473;28;20516;-75
2021/12/21 00:23:40;;;;;;;21.50;15.50;;;-3.40;99.90;;;;;;4975299;28;20018;-75
2021/12/21 00:26:08;;;;;;;13.50;9.20;;;-3.30;99.90;;;;;;4972723;28;20019;-76
2021/12/21 00:28:46;;;;;;;18.02;11.88;;;-3.30;99.90;;;;;;4974525;28;20033;-76
2021/12/21 00:31:12;;;;;;;13.82;9.73;;;-3.20;99.90;;;;;;4979381;28;20031;-76
2021/12/21 00:33:40;;;;;;;13.20;10.05;;;-3.20;99.90;;;;;;4983479;28;20076;-75
2021/12/21 00:36:07;;;;;;;11.82;9.10;;;-3.30;99.90;;;;;;4975356;28;20019;-76
2021/12/21 00:38:33;;;;;;;16.17;11.13;;;-3.20;99.90;;;;;;4972779;28;20513;-75
2021/12/21 00:40:59;;;;;;;13.73;9.65;;;-3.30;99.90;;;;;;4975401;28;20532;-75
2021/12/21 00:43:24;;;;;;;18.05;9.65;;;-3.20;99.90;;;;;;4977843;28;20023;-75
2021/12/21 00:45:50;;;;;;;14.85;10.68;;;-3.30;99.90;;;;;;4977690;28;20050;-75
2021/12/21 00:48:16;;;;;;;13.93;10.63;;;-3.40;99.90;;;;;;4971413;28;20026;-75
2021/12/21 00:50:42;;;;;;;14.23;10.35;;;-3.50;99.90;;;;;;4978730;28;20015;-75
2021/12/21 00:53:07;;;;;;;16.98;11.07;;;-3.40;99.90;;;;;;4971478;28;20089;-76
2021/12/21 00:55:33;;;;;;;14.27;8.95;;;-3.50;99.90;;;;;;4980726;28;20023;-76
2021/12/21 00:57:59;;;;;;;14.60;9.70;;;-3.50;99.90;;;;;;4972459;28;20019;-75
2021/12/21 01:00:25;;;;;;;16.13;10.50;;;-3.60;99.90;;;;;;4971287;28;20094;-75
2021/12/21 01:02:51;;;;;;;16.55;10.05;;;-3.60;99.90;;;;;;4971344;28;20042;-75
2021/12/21 01:05:25;;;;;;;11.70;8.80;;;-3.70;99.90;;;;;;4973508;28;20030;-75
2021/12/21 01:07:53;;;;;;;12.43;8.93;;;-3.60;99.90;;;;;;4975880;28;20046;-75
2021/12/21 01:10:48;;;;;;;14.70;8.88;;;-3.60;99.90;;;;;;4975035;28;20463;-75
2021/12/21 01:13:17;;;;;;;11.60;9.02;;;-3.70;99.90;;;;;;4970315;28;20109;-75
2021/12/21 01:18:17;;;;;;;13.38;8.60;;;-3.70;99.90;;;;;;4977346;28;20029;-75
2021/12/21 01:20:50;;;;;;;11.18;8.10;;;-3.70;99.90;;;;;;4976828;28;20029;-76
2021/12/21 01:25:55;;;;;;;8.55;6.65;;;-3.70;99.90;;;;;;4975694;28;20027;-76
2021/12/21 01:28:34;;;;;;;11.07;7.35;;;-3.80;99.90;;;;;;4978606;28;20073;-76
2021/12/21 01:31:15;;;;;;;10.20;7.00;;;-3.80;99.90;;;;;;4970091;28;20481;-76
2021/12/21 01:36:25;;;;;;;14.77;9.40;;;-3.70;99.90;;;;;;4980000;28;20405;-77
2021/12/21 01:39:06;;;;;;;10.50;8.25;;;-3.70;99.90;;;;;;4980186;28;20074;-77
2021/12/21 01:44:26;;;;;;;13.70;6.67;;;-3.70;99.90;;;;;;4984186;28;20035;-76
2021/12/21 01:49:42;;;;;;;10.02;6.07;;;-3.80;99.90;;;;;;4988451;28;20033;-76
2021/12/21 01:52:12;;;;;;;10.13;6.63;;;-3.70;99.90;;;;;;4985694;28;20019;-77
2021/12/21 01:54:38;;;;;;;9.80;6.07;;;-3.60;99.90;;;;;;4985868;28;20664;-76
2021/12/21 01:57:05;;;;;;;9.77;6.45;;;-3.60;99.90;;;;;;4981780;28;20030;-74
2021/12/21 01:59:32;;;;;;;10.65;5.18;;;-3.50;99.90;;;;;;4993481;28;20061;-74
2021/12/21 02:01:58;;;;;;;9.32;6.07;;;-3.50;99.90;;;;;;4979980;28;20094;-74
2021/12/21 02:04:23;;;;;;;9.50;5.80;;;-3.50;99.90;;;;;;4974921;28;20374;-75
2021/12/21 02:06:49;;;;;;;10.70;6.38;;;-3.50;99.90;;;;;;4988212;28;20373;-73
2021/12/21 02:09:16;;;;;;;11.77;6.78;;;-3.50;99.90;;;;;;4982303;28;20033;-77
2021/12/21 02:11:42;;;;;;;11.57;5.72;;;-3.40;99.90;;;;;;4991602;28;20026;-77
2021/12/21 02:14:09;;;;;;;11.68;7.43;;;-3.50;99.90;;;;;;4981795;28;20026;-74
2021/12/21 02:16:47;;;;;;;15.50;11.90;;;-3.40;99.90;;;;;;4979139;28;20477;-74
2021/12/21 02:19:26;;;;;;;9.48;6.90;;;-3.50;99.90;;;;;;4973759;28;20027;-74
2021/12/21 02:21:55;;;;;;;13.10;6.63;;;-3.50;99.90;;;;;;4979816;28;20023;-74
2021/12/21 02:24:26;;;;;;;12.40;7.40;;;-3.50;99.90;;;;;;4982349;28;20469;-73
2021/12/21 02:27:07;;;;;;;12.65;7.25;;;-3.40;99.90;;;;;;4989805;28;20023;-74
2021/12/21 02:29:35;;;;;;;10.13;6.15;;;-3.50;99.90;;;;;;4974834;28;20023;-74
2021/12/21 02:32:01;;;;;;;10.88;5.50;;;-3.60;99.90;;;;;;4992811;28;20033;-75
2021/12/21 02:34:27;;;;;;;11.15;5.40;;;-3.50;99.90;;;;;;4980788;28;20109;-75
2021/12/21 02:36:54;;;;;;;9.13;5.72;;;-3.50;99.90;;;;;;4994175;28;20510;-74
2021/12/21 02:39:22;;;;;;;11.73;6.15;;;-3.50;99.90;;;;;;4979773;28;20049;-73
2021/12/21 02:41:47;;;;;;;10.70;6.05;;;-3.50;99.90;;;;;;4984161;28;20027;-73
2021/12/21 02:44:14;;;;;;;12.13;5.55;;;-3.50;99.90;;;;;;4976774;28;20023;-73
2021/12/21 02:46:40;;;;;;;9.57;5.82;;;-3.50;99.90;;;;;;4985690;28;20026;-73
2021/12/21 02:49:08;;;;;;;10.40;5.55;;;-3.60;99.90;;;;;;4979255;28;20393;-73
2021/12/21 02:51:36;;;;;;;9.02;5.90;;;-3.50;99.90;;;;;;4984150;28;20030;-73
2021/12/21 02:54:02;;;;;;;9.13;5.43;;;-3.50;99.90;;;;;;4982170;28;20030;-74
2021/12/21 02:56:28;;;;;;;9.60;5.70;;;-3.50;99.90;;;;;;4991309;28;20029;-74
2021/12/21 02:58:53;;;;;;;11.88;5.18;;;-3.50;99.90;;;;;;4980361;28;20034;-75
2021/12/21 03:01:19;;;;;;;9.85;5.55;;;-3.60;99.90;;;;;;4983976;28;20034;-75
2021/12/21 03:03:45;;;;;;;8.50;5.65;;;-3.60;99.90;;;;;;4987137;28;20495;-75
2021/12/21 03:06:25;;;;;;;11.18;5.93;;;-3.60;99.90;;;;;;4983628;28;20023;-75
2021/12/21 03:08:56;;;;;;;8.73;5.47;;;-3.60;99.90;;;;;;4980389;28;20141;-74
2021/12/21 03:11:36;;;;;;;9.57;6.13;;;-3.60;99.90;;;;;;4981452;28;20064;-74
2021/12/21 03:14:05;;;;;;;33.30;24.90;;;-3.60;99.90;;;;;;4984740;28;20026;-74
2021/12/21 03:16:40;;;;;;;12.40;7.65;;;-3.60;99.90;;;;;;4986394;28;20030;-74
2021/12/21 03:19:08;;;;;;;15.40;6.03;;;-3.80;99.90;;;;;;4984944;28;20393;-74
2021/12/21 03:21:34;;;;;;;8.73;6.85;;;-4.00;99.90;;;;;;4974430;28;20043;-74
2021/12/21 03:24:00;;;;;;;12.10;7.68;;;-4.10;99.90;;;;;;4984400;28;20397;-74
2021/12/21 03:26:26;;;;;;;11.90;5.80;;;-4.00;99.90;;;;;;4975522;28;20060;-74
2021/12/21 03:28:52;;;;;;;14.82;6.47;;;-4.10;99.90;;;;;;4983818;28;20027;-74
2021/12/21 03:31:18;;;;;;;11.40;6.38;;;-4.30;99.90;;;;;;4973566;28;20540;-75
2021/12/21 03:33:44;;;;;;;11.10;5.57;;;-4.30;99.90;;;;;;4980877;28;20022;-75
2021/12/21 03:36:10;;;;;;;12.38;7.22;;;-4.20;99.90;;;;;;4979813;28;20414;-75
2021/12/21 03:38:37;;;;;;;8.88;6.55;;;-4.10;99.90;;;;;;4983304;28;20029;-75
2021/12/21 03:41:08;;;;;;;11.30;5.78;;;-4.10;99.90;;;;;;4986299;28;20026;-75
2021/12/21 03:43:34;;;;;;;13.05;6.88;;;-4.10;99.90;;;;;;4981356;28;20068;-75
2021/12/21 03:46:12;;;;;;;10.02;6.20;;;-4.10;99.90;;;;;;4975807;28;20118;-75
2021/12/21 03:48:43;;;;;;;12.90;6.07;;;-4.10;99.90;;;;;;4973271;28;20027;-75
2021/12/21 03:51:10;;;;;;;10.82;7.72;;;-4.10;99.90;;;;;;4978010;28;20022;-75
2021/12/21 03:53:36;;;;;;;41.08;32.28;;;-4.10;99.90;;;;;;4981247;28;20038;-74
2021/12/21 03:58:47;;;;;;;20.83;8.07;;;-4.00;99.90;;;;;;4986539;28;20084;-76
2021/12/21 04:01:14;;;;;;;13.98;9.10;;;-3.90;99.90;;;;;;4991372;28;20034;-75
2021/12/21 04:03:39;;;;;;;13.25;7.10;;;-4.00;99.90;;;;;;4977128;28;20061;-75
2021/12/21 04:06:06;;;;;;;12.48;8.23;;;-4.00;99.90;;;;;;4972887;28;20636;-74
2021/12/21 04:08:32;;;;;;;10.10;6.90;;;-4.00;99.90;;;;;;4972895;28;20118;-74
2021/12/21 04:10:57;;;;;;;11.52;7.40;;;-4.10;99.90;;;;;;4980372;28;20110;-74
2021/12/21 04:13:23;;;;;;;9.77;5.25;;;-4.10;99.90;;;;;;4975698;28;20023;-74
2021/12/21 04:15:52;;;;;;;12.20;5.60;;;-4.00;99.90;;;;;;4981448;28;20042;-75
2021/12/21 04:18:20;;;;;;;9.77;6.70;;;-4.00;99.90;;;;;;4976843;28;20053;-73
2021/12/21 04:20:46;;;;;;;10.75;6.82;;;-4.00;99.90;;;;;;4972859;28;20465;-73
2021/12/21 04:23:11;;;;;;;11.00;6.60;;;-4.00;99.90;;;;;;4972944;28;20038;-74
2021/12/21 04:25:37;;;;;;;8.65;5.65;;;-4.00;99.90;;;;;;4980781;28;20035;-75
2021/12/21 04:28:03;;;;;;;11.60;7.20;;;-4.00;99.90;;;;;;4979260;28;20497;-74
2021/12/21 04:30:28;;;;;;;11.27;7.05;;;-4.00;99.90;;;;;;4992017;28;20018;-73
2021/12/21 04:32:54;;;;;;;10.63;5.85;;;-4.00;99.90;;;;;;4979285;28;20065;-74
2021/12/21 04:35:21;;;;;;;10.43;7.10;;;-4.00;99.90;;;;;;4983040;28;20019;-73
2021/12/21 04:37:56;;;;;;;14.93;5.88;;;-4.10;99.90;;;;;;4975424;28;20428;-73
2021/12/21 04:40:26;;;;;;;8.98;6.78;;;-4.00;99.90;;;;;;4972778;28;20425;-73
2021/12/21 04:42:52;;;;;;;14.32;6.32;;;-4.10;99.90;;;;;;4975507;28;20054;-73
2021/12/21 04:45:17;;;;;;;13.10;7.00;;;-4.10;99.90;;;;;;4976255;28;20117;-73
2021/12/21 04:47:43;;;;;;;13.68;6.88;;;-4.10;99.90;;;;;;4991041;28;20031;-73
2021/12/21 04:50:10;;;;;;;10.35;7.15;;;-4.10;99.90;;;;;;4986962;28;20033;-73
2021/12/21 04:52:35;;;;;;;10.13;7.32;;;-4.10;99.90;;;;;;4978888;28;20439;-73
2021/12/21 04:55:01;;;;;;;11.73;7.55;;;-4.10;99.90;;;;;;4976301;28;20034;-73
2021/12/21 04:57:27;;;;;;;14.20;6.07;;;-4.10;99.90;;;;;;4976333;28;20042;-73
2021/12/21 04:59:52;;;;;;;11.90;8.48;;;-4.10;99.90;;;;;;4976423;28;20646;-74
2021/12/21 05:02:18;;;;;;;10.35;7.30;;;-4.10;99.90;;;;;;4978992;28;20030;-73
2021/12/21 05:04:44;;;;;;;11.93;7.57;;;-4.20;99.90;;;;;;4985187;28;20071;-74
2021/12/21 05:07:09;;;;;;;11.23;6.25;;;-4.30;99.90;;;;;;4989385;28;20452;-74
2021/12/21 05:09:42;;;;;;;14.32;6.38;;;-4.30;99.90;;;;;;4976237;28;20030;-74
2021/12/21 05:12:11;;;;;;;10.90;5.95;;;-4.30;99.90;;;;;;4981274;28;20037;-73
2021/12/21 05:14:36;;;;;;;10.82;7.95;;;-4.30;99.90;;;;;;4983253;28;20153;-73
2021/12/21 05:17:02;;;;;;;10.32;6.28;;;-4.30;99.90;;;;;;4981779;28;20113;-73
2021/12/21 05:19:28;;;;;;;12.68;7.65;;;-4.50;99.90;;;;;;4982148;28;20026;-73
2021/12/21 05:21:54;;;;;;;13.65;7.85;;;-4.50;99.90;;;;;;4989102;28;20037;-74
2021/12/21 05:24:20;;;;;;;12.98;6.10;;;-4.60;99.90;;;;;;4975777;28;20409;-73
2021/12/21 05:26:45;;;;;;;8.77;7.32;;;-4.60;99.90;;;;;;4980453;28;20027;-73
2021/12/21 05:29:11;;;;;;;9.27;6.35;;;-4.70;99.90;;;;;;4982829;28;20038;-73
2021/12/21 05:31:37;;;;;;;10.00;6.97;;;-4.70;99.90;;;;;;4988723;28;20033;-75
2021/12/21 05:34:02;;;;;;;11.20;6.60;;;-4.80;99.90;;;;;;4987844;28;20026;-76
2021/12/21 05:36:28;;;;;;;13.63;7.03;;;-4.80;99.90;;;;;;4982045;28;20049;-76
2021/12/21 05:38:59;;;;;;;13.45;8.00;;;-4.80;99.90;;;;;;4993916;28;20122;-75
2021/12/21 05:41:29;;;;;;;14.35;7.40;;;-4.90;99.90;;;;;;4975100;28;20031;-76
2021/12/21 05:43:55;;;;;;;11.02;8.63;;;-4.80;99.90;;;;;;4987681;28;20042;-75
2021/12/21 05:46:20;;;;;;;13.68;7.18;;;-4.90;99.90;;;;;;4974844;28;20027;-76
2021/12/21 05:48:48;;;;;;;12.57;7.68;;;-4.80;99.90;;;;;;4975937;28;20035;-75
2021/12/21 05:51:13;;;;;;;13.07;8.13;;;-4.90;99.90;;;;;;4987125;28;20564;-75
2021/12/21 05:53:39;;;;;;;14.68;7.88;;;-4.90;99.90;;;;;;4988608;28;20117;-76
2021/12/21 05:56:04;;;;;;;17.15;8.35;;;-4.90;99.90;;;;;;4980935;28;20033;-75
2021/12/21 05:58:30;;;;;;;12.07;9.15;;;-4.90;99.90;;;;;;4981770;28;20315;-74
2021/12/21 06:00:56;;;;;;;16.42;8.45;;;-5.00;99.90;;;;;;4988133;28;20027;-75
2021/12/21 06:03:21;;;;;;;14.13;8.07;;;-5.00;99.90;;;;;;4974002;28;20035;-75
2021/12/21 06:05:47;;;;;;;12.48;9.57;;;-4.90;99.90;;;;;;4981572;28;20030;-76
2021/12/21 06:08:12;;;;;;;17.73;11.02;;;-5.00;99.90;;;;;;4980816;28;20608;-76
2021/12/21 06:10:41;;;;;;;10.75;7.47;;;-5.00;99.90;;;;;;4975429;28;20508;-77
2021/12/21 06:13:30;;;;;;;12.52;7.15;;;-5.20;99.90;;;;;;4993115;28;20507;-77
2021/12/21 06:26:30;;;;;;;17.50;8.05;;;-5.30;99.90;;;;;;4988084;28;20455;-78
2021/12/21 06:28:55;;;;;;;16.20;8.93;;;-5.30;99.90;;;;;;4993408;28;20114;-76
2021/12/21 06:31:21;;;;;;;33.05;14.00;;;-5.30;99.90;;;;;;4979611;28;20444;-76
2021/12/21 06:33:47;;;;;;;22.88;13.65;;;-5.30;99.90;;;;;;4984467;28;20381;-76
2021/12/21 06:36:13;;;;;;;18.98;10.45;;;-5.20;99.90;;;;;;4987517;28;20031;-76
2021/12/21 06:38:39;;;;;;;19.67;10.70;;;-5.20;99.90;;;;;;4983014;28;20031;-75
2021/12/21 06:41:04;;;;;;;16.40;9.75;;;-5.30;99.90;;;;;;4979441;28;20373;-75
2021/12/21 06:43:32;;;;;;;12.75;8.38;;;-5.20;99.90;;;;;;4984259;28;20031;-75
2021/12/21 06:46:07;;;;;;;11.05;7.68;;;-5.20;99.90;;;;;;4986161;28;20033;-75
2021/12/21 06:51:22;;;;;;;14.18;7.55;;;-5.20;99.90;;;;;;4969411;28;20029;-75
2021/12/21 06:53:55;;;;;;;10.27;8.48;;;-5.20;99.90;;;;;;4979476;28;20054;-75
2021/12/21 06:56:22;;;;;;;11.43;7.63;;;-5.20;99.90;;;;;;4983627;28;20023;-75
2021/12/21 06:58:48;;;;;;;13.23;7.68;;;-5.30;99.90;;;;;;4989933;28;20400;-75
2021/12/21 07:01:14;;;;;;;11.77;7.28;;;-5.20;99.90;;;;;;4992102;28;20528;-76
2021/12/21 07:03:41;;;;;;;12.60;8.88;;;-5.20;99.90;;;;;;4979792;28;20126;-75
2021/12/21 07:06:08;;;;;;;13.57;7.53;;;-5.20;99.90;;;;;;4984412;28;20022;-75
2021/12/21 07:08:44;;;;;;;11.60;8.50;;;-5.20;99.90;;;;;;4972701;28;20041;-76
2021/12/21 07:11:20;;;;;;;14.48;8.05;;;-5.00;99.90;;;;;;4984184;28;20161;-76
2021/12/21 07:19:14;;;;;;;16.90;11.32;;;-5.20;99.90;;;;;;4983297;28;20041;-76
2021/12/21 07:21:40;;;;;;;18.52;12.88;;;-5.30;99.90;;;;;;4988806;28;20034;-76
2021/12/21 07:24:06;;;;;;;13.68;9.98;;;-5.40;99.90;;;;;;4983683;28;20050;-76
2021/12/21 07:26:32;;;;;;;14.10;8.68;;;-5.40;99.90;;;;;;4979305;28;20023;-77
2021/12/21 07:28:58;;;;;;;20.13;10.77;;;-5.30;99.90;;;;;;4983002;28;20125;-77
2021/12/21 07:31:24;;;;;;;24.55;14.10;;;-5.40;99.90;;;;;;4986660;28;20501;-76
2021/12/21 07:33:49;;;;;;;22.13;11.50;;;-5.40;99.90;;;;;;4991972;28;20121;-76
2021/12/21 07:36:15;;;;;;;21.05;11.77;;;-5.40;99.90;;;;;;4979266;28;20060;-76
2021/12/21 07:38:40;;;;;;;18.38;10.82;;;-5.50;99.90;;;;;;4976815;28;20018;-76
2021/12/21 07:41:06;;;;;;;31.17;17.45;;;-5.60;99.90;;;;;;4975144;28;20124;-76
2021/12/21 07:43:31;;;;;;;40.47;21.48;;;-5.40;99.90;;;;;;4974394;28;20105;-77
2021/12/21 07:45:57;;;;;;;42.97;22.30;;;-5.40;99.90;;;;;;4971781;28;20378;-77
2021/12/21 07:48:23;;;;;;;43.05;22.98;;;-5.40;99.90;;;;;;4976166;28;20027;-76
2021/12/21 07:50:50;;;;;;;39.25;21.08;;;-5.40;99.90;;;;;;4971344;28;20026;-76
2021/12/21 07:53:17;;;;;;;35.67;21.73;;;-5.40;99.90;;;;;;4973306;28;20019;-76
2021/12/21 07:55:42;;;;;;;37.08;23.95;;;-5.30;99.90;;;;;;4976207;28;20105;-76
2021/12/21 07:58:08;;;;;;;34.35;20.95;;;-5.20;99.90;;;;;;4983272;28;20026;-76
2021/12/21 08:00:34;;;;;;;32.28;20.58;;;-5.20;99.90;;;;;;4986268;28;20393;-76
2021/12/21 08:03:00;;;;;;;35.08;21.63;;;-5.20;99.90;;;;;;4981182;28;20058;-76
2021/12/21 08:05:31;;;;;;;37.58;20.92;;;-5.20;99.90;;;;;;4976783;28;20031;-76
2021/12/21 08:08:07;;;;;;;30.25;18.30;;;-5.20;99.90;;;;;;4981553;28;20026;-75
2021/12/21 08:10:43;;;;;;;28.58;17.00;;;-5.20;99.90;;;;;;4952455;29;20038;-76
2021/12/21 08:13:08;;;;;;;;;;;-5.10;99.90;;;;;;4980227;28;20441;-76
2021/12/21 08:15:34;;;;;;;30.40;18.70;;;-5.00;99.90;;;;;;4972563;28;19960;-76
2021/12/21 08:17:59;;;;;;;30.50;18.02;;;-5.00;99.90;;;;;;4985993;28;20404;-77
2021/12/21 08:20:27;;;;;;;29.52;18.15;;;-4.90;99.90;;;;;;4978037;28;20026;-76
2021/12/21 08:22:56;;;;;;;24.30;15.90;;;-4.90;99.90;;;;;;4979550;28;20503;-76
2021/12/21 08:25:26;;;;;;;26.00;15.75;;;-4.80;99.90;;;;;;4983997;28;20478;-77
2021/12/21 08:27:52;;;;;;;24.25;16.65;;;-4.70;99.90;;;;;;4972940;28;20030;-76
2021/12/21 08:30:17;;;;;;;20.48;17.70;;;-4.50;99.90;;;;;;4980773;28;20076;-76
2021/12/21 08:32:43;;;;;;;25.08;16.00;;;-4.50;99.90;;;;;;4978077;28;20038;-76
2021/12/21 08:35:12;;;;;;;28.25;15.30;;;-4.40;99.90;;;;;;4983184;28;20026;-76
2021/12/21 08:37:38;;;;;;;27.98;16.33;;;-4.40;99.90;;;;;;4986160;28;20408;-76
2021/12/21 08:40:04;;;;;;;21.33;17.98;;;-4.30;99.90;;;;;;4992310;28;20038;-76
2021/12/21 08:42:30;;;;;;;26.83;19.13;;;-4.20;99.90;;;;;;4977687;28;20030;-76
2021/12/21 08:44:59;;;;;;;25.58;15.50;;;-4.10;99.90;;;;;;4983646;28;20109;-77
2021/12/21 08:47:25;;;;;;;25.42;20.00;;;-4.10;99.90;;;;;;4985749;28;20034;-76
2021/12/21 08:49:50;;;;;;;24.20;14.98;;;-4.20;99.90;;;;;;4981490;28;20480;-76
2021/12/21 08:52:16;;;;;;;25.30;19.23;;;-4.00;99.90;;;;;;4978016;28;20023;-77
2021/12/21 08:54:43;;;;;;;24.63;14.90;;;-3.90;99.90;;;;;;4983748;28;20031;-76
2021/12/21 08:57:08;;;;;;;21.60;13.95;;;-4.00;99.90;;;;;;4985795;28;20039;-75
2021/12/21 08:59:34;;;;;;;19.58;16.35;;;-3.90;99.90;;;;;;4990820;28;20491;-75
2021/12/21 09:01:59;;;;;;;20.67;13.05;;;-3.80;99.90;;;;;;4977173;28;20030;-75
2021/12/21 09:04:26;;;;;;;22.10;17.33;;;-3.80;99.90;;;;;;4971073;28;20030;-75
2021/12/21 09:06:53;;;;;;;23.17;13.23;;;-3.80;99.90;;;;;;4989267;28;20023;-75
2021/12/21 09:09:19;;;;;;;20.30;16.00;;;-3.70;99.90;;;;;;4981110;28;20031;-75
2021/12/21 09:11:45;;;;;;;20.35;13.75;;;-3.70;99.90;;;;;;4985527;28;20030;-75
2021/12/21 09:14:12;;;;;;;23.90;15.35;;;-3.60;99.90;;;;;;4981016;28;20029;-76
2021/12/21 09:16:37;;;;;;;20.40;17.10;;;-3.50;99.90;;;;;;4978967;28;20059;-75
2021/12/21 09:19:03;;;;;;;23.63;18.60;;;-3.40;99.90;;;;;;4983380;28;20064;-76
2021/12/21 09:21:29;;;;;;;21.65;16.75;;;-3.40;99.90;;;;;;4984206;28;20030;-76
2021/12/21 09:23:54;;;;;;;23.23;14.05;;;-3.30;99.90;;;;;;4980701;28;20031;-76
2021/12/21 09:26:20;;;;;;;23.33;16.60;;;-3.30;99.90;;;;;;4978718;28;20027;-75
2021/12/21 09:28:45;;;;;;;21.98;17.90;;;-3.20;99.90;;;;;;4985663;28;20771;-76
2021/12/21 09:31:11;;;;;;;23.92;15.30;;;-3.10;99.90;;;;;;4987596;28;20030;-76
2021/12/21 09:33:37;;;;;;;20.05;16.17;;;-3.00;99.90;;;;;;4994064;28;20065;-76
2021/12/21 09:36:03;;;;;;;24.05;17.63;;;-2.90;99.90;;;;;;4980672;28;20458;-76
2021/12/21 09:38:29;;;;;;;25.40;16.08;;;-2.90;99.90;;;;;;4986119;28;20039;-77
2021/12/21 09:40:55;;;;;;;22.10;18.55;;;-2.80;99.90;;;;;;4976693;28;20557;-76
2021/12/21 09:43:21;;;;;;;31.85;16.55;;;-2.60;99.90;;;;;;4984775;28;20034;-76
2021/12/21 09:45:47;;;;;;;22.80;19.23;;;-2.60;99.90;;;;;;4986564;28;20026;-76
2021/12/21 09:48:12;;;;;;;25.02;20.42;;;-2.60;99.90;;;;;;4983295;28;20534;-75
2021/12/21 09:50:38;;;;;;;23.73;20.55;;;-2.50;99.90;;;;;;4982009;28;20102;-76
2021/12/21 09:53:04;;;;;;;26.38;20.88;;;-2.50;99.90;;;;;;4985956;28;20397;-76
2021/12/21 09:55:30;;;;;;;22.75;20.08;;;-2.40;99.90;;;;;;4988285;28;20018;-76
2021/12/21 09:57:56;;;;;;;28.83;17.60;;;-2.30;99.90;;;;;;4983073;28;20473;-76
2021/12/21 10:00:29;;;;;;;24.42;20.98;;;-2.30;99.90;;;;;;4981507;28;20473;-76
2021/12/21 10:03:03;;;;;;;27.17;20.42;;;-2.30;99.90;;;;;;4985127;28;20125;-76
2021/12/21 10:05:38;;;;;;;30.40;18.43;;;-2.20;99.90;;;;;;4988138;28;20118;-76
2021/12/21 10:08:19;;;;;;;24.65;20.92;;;-2.50;99.90;;;;;;4983822;28;20084;-76
2021/12/21 10:10:48;;;;;;;28.80;23.77;;;-2.10;99.90;;;;;;4969119;28;20034;-76
2021/12/21 10:13:23;;;;;;;28.83;23.08;;;-2.00;99.90;;;;;;4981406;28;20019;-76
2021/12/21 10:15:52;;;;;;;29.10;24.38;;;-1.90;99.90;;;;;;4994163;28;20022;-75
2021/12/21 10:18:25;;;;;;;26.73;22.27;;;-1.80;99.90;;;;;;4983831;28;20559;-75
2021/12/21 10:20:51;;;;;;;25.23;20.75;;;-1.80;99.90;;;;;;4991327;28;20106;-75
2021/12/21 10:23:21;;;;;;;24.15;21.40;;;-1.70;99.90;;;;;;4986776;28;20026;-75
2021/12/21 10:25:53;;;;;;;25.60;21.92;;;-1.60;99.90;;;;;;4984827;28;20686;-75
2021/12/21 10:28:37;;;;;;;24.05;19.90;;;-1.50;99.90;;;;;;4988690;28;20048;-75
2021/12/21 10:31:12;;;;;;;25.85;21.40;;;-1.50;99.90;;;;;;4990796;28;20030;-74
2021/12/21 10:33:42;;;;;;;23.98;19.48;;;-1.40;99.90;;;;;;4984689;28;20035;-75
2021/12/21 10:36:09;;;;;;;23.33;18.77;;;-1.40;99.90;;;;;;4973262;28;20046;-75
2021/12/21 10:38:50;;;;;;;22.95;18.95;;;-1.40;99.90;;;;;;4981713;28;20393;-75
2021/12/21 10:41:33;;;;;;;22.92;18.63;;;-1.30;99.90;;;;;;4988410;28;20022;-75
2021/12/21 10:44:09;;;;;;;21.80;18.27;;;-1.30;99.90;;;;;;4985942;28;20084;-76
2021/12/21 10:46:37;;;;;;;20.05;17.80;;;-1.20;99.90;;;;;;4962230;28;20392;-76
2021/12/21 10:49:16;;;;;;;20.92;17.67;;;-1.10;99.90;;;;;;4987135;28;20477;-76
2021/12/21 10:51:58;;;;;;;21.08;17.20;;;-1.20;99.90;;;;;;4974282;28;20031;-76
2021/12/21 10:54:29;;;;;;;17.52;15.68;;;-1.10;99.90;;;;;;4987133;28;20037;-76
2021/12/21 10:57:10;;;;;;;19.65;16.20;;;-1.00;99.90;;;;;;4987136;28;20026;-76
2021/12/21 10:59:38;;;;;;;19.25;16.38;;;-1.00;99.90;;;;;;4971487;28;20108;-76
2021/12/21 11:02:13;;;;;;;18.00;16.10;;;-0.80;99.90;;;;;;4980569;28;20374;-76
2021/12/21 11:04:41;;;;;;;22.30;14.55;;;-0.80;99.90;;;;;;4981994;28;20636;-76
2021/12/21 11:07:27;;;;;;;17.27;14.18;;;-0.80;99.90;;;;;;4973584;28;20126;-76
2021/12/21 11:10:01;;;;;;;19.30;14.73;;;-0.70;99.90;;;;;;4986038;28;20030;-76
2021/12/21 11:12:28;;;;;;;16.33;14.48;;;-0.60;99.90;;;;;;4981636;28;20023;-76
2021/12/21 11:14:57;;;;;;;19.83;15.43;;;-0.60;99.90;;;;;;4992318;28;20053;-76
2021/12/21 11:17:23;;;;;;;17.13;14.68;;;-0.50;99.90;;;;;;4982035;28;20552;-76
2021/12/21 11:19:52;;;;;;;19.95;15.80;;;-0.50;99.90;;;;;;4979044;28;20035;-75
2021/12/21 11:22:20;;;;;;;15.43;13.52;;;-0.50;99.90;;;;;;4984820;28;20023;-76
2021/12/21 11:24:47;;;;;;;17.55;15.63;;;-0.50;99.90;;;;;;4986530;28;20511;-76
2021/12/21 11:27:15;;;;;;;18.95;15.40;;;-0.50;99.90;;;;;;4981579;28;20023;-76
2021/12/21 11:29:41;;;;;;;15.48;13.18;;;-0.40;99.90;;;;;;4975098;28;20029;-75
2021/12/21 11:32:08;;;;;;;15.77;13.23;;;-0.40;99.90;;;;;;4972286;28;20023;-75
2021/12/21 11:34:36;;;;;;;17.17;13.52;;;-0.40;99.90;;;;;;4976805;28;20014;-76
2021/12/21 11:37:21;;;;;;;16.20;13.27;;;-0.30;99.90;;;;;;4981208;28;20388;-76
2021/12/21 11:39:47;;;;;;;16.48;13.50;;;-0.30;99.90;;;;;;4992773;28;20033;-76
2021/12/21 11:42:24;;;;;;;17.80;13.50;;;-0.20;99.90;;;;;;4991123;28;20113;-76
2021/12/21 11:45:16;;;;;;;16.20;12.75;;;-0.20;99.90;;;;;;4969057;28;20041;-76
2021/12/21 11:47:57;;;;;;;16.50;13.25;;;-0.20;99.90;;;;;;4986182;28;20034;-76
2021/12/21 11:50:23;;;;;;;17.23;14.48;;;-0.10;99.90;;;;;;4977907;28;20019;-76
2021/12/21 11:52:52;;;;;;;15.88;14.13;;;-0.20;99.90;;;;;;4985875;28;20101;-75
2021/12/21 11:55:20;;;;;;;17.17;13.05;;;0.00;99.90;;;;;;4973178;28;20041;-75
2021/12/21 11:57:52;;;;;;;17.83;13.95;;;0.00;99.90;;;;;;4991694;28;20037;-77
2021/12/21 12:00:30;;;;;;;16.13;13.73;;;-0.10;99.90;;;;;;4979661;28;20511;-77
2021/12/21 12:03:08;;;;;;;16.15;13.70;;;-0.10;99.90;;;;;;4981186;28;20027;-77
2021/12/21 12:05:34;;;;;;;19.73;15.20;;;-0.10;99.90;;;;;;4985879;28;20485;-77
2021/12/21 12:08:10;;;;;;;14.63;12.75;;;-0.10;99.90;;;;;;4991078;28;20113;-77
2021/12/21 12:10:47;;;;;;;14.77;12.65;;;0.00;99.90;;;;;;4987079;28;20033;-75
2021/12/21 12:13:17;;;;;;;13.50;11.43;;;0.10;99.90;;;;;;4987112;28;20400;-75
2021/12/21 12:15:44;;;;;;;13.20;11.65;;;0.20;99.90;;;;;;4984866;28;20041;-77
2021/12/21 12:18:47;;;;;;;13.52;12.15;;;0.10;99.90;;;;;;4986019;28;20030;-76
2021/12/21 12:21:20;;;;;;;12.95;11.63;;;0.10;99.90;;;;;;4985343;28;20034;-75
2021/12/21 12:24:04;;;;;;;12.68;11.05;;;0.00;99.90;;;;;;4968238;28;20081;-75
2021/12/21 12:26:38;;;;;;;12.45;11.15;;;0.10;99.90;;;;;;4979458;28;20572;-75
2021/12/21 12:29:15;;;;;;;11.23;9.90;;;0.20;99.90;;;;;;4981742;28;20044;-75
2021/12/21 12:31:46;;;;;;;14.52;10.82;;;0.10;99.90;;;;;;4987717;28;20019;-76
2021/12/21 12:34:28;;;;;;;12.40;10.00;;;0.10;99.90;;;;;;4985125;28;20098;-75
2021/12/21 12:36:55;;;;;;;13.52;10.73;;;0.10;99.90;;;;;;4969773;28;20432;-76
2021/12/21 12:39:32;;;;;;;10.77;8.98;;;0.20;99.90;;;;;;4977869;28;20027;-76
2021/12/21 12:42:05;;;;;;;11.73;9.23;;;0.20;99.90;;;;;;4982263;28;20397;-75
2021/12/21 12:44:31;;;;;;;9.80;8.48;;;0.10;99.90;;;;;;4976466;28;20555;-75
2021/12/21 12:47:02;;;;;;;8.02;7.20;;;0.20;99.90;;;;;;4981435;28;20145;-76
2021/12/21 12:49:30;;;;;;;10.90;8.38;;;0.20;99.90;;;;;;4984117;28;20027;-75
2021/12/21 12:52:06;;;;;;;9.85;8.50;;;0.20;99.90;;;;;;4983371;28;20485;-76
2021/12/21 12:54:42;;;;;;;;;;;0.30;99.90;;;;;;4953873;28;20034;-76
2021/12/21 12:57:10;;;;;;;8.30;7.43;;;0.20;99.90;;;;;;4966281;28;19953;-77
2021/12/21 12:59:36;;;;;;;11.80;8.05;;;0.30;99.90;;;;;;4979672;28;20034;-77
2021/12/21 13:02:07;;;;;;;12.27;8.07;;;0.30;99.90;;;;;;4978468;28;20081;-77
2021/12/21 13:04:36;;;;;;;8.80;6.65;;;0.40;99.90;;;;;;4986579;28;20027;-75
2021/12/21 13:07:02;;;;;;;8.52;7.60;;;0.50;99.90;;;;;;4981650;28;20027;-75
2021/12/21 13:09:31;;;;;;;7.60;6.63;;;0.50;99.90;;;;;;4968620;28;20478;-75
2021/12/21 13:11:57;;;;;;;10.85;8.02;;;0.50;99.90;;;;;;4987084;28;20440;-76
2021/12/21 13:14:22;;;;;;;10.80;7.00;;;0.50;99.90;;;;;;4984280;28;20073;-75
2021/12/21 13:16:49;;;;;;;9.80;8.80;;;0.60;99.90;;;;;;4991065;28;20023;-76
2021/12/21 13:19:16;;;;;;;10.15;9.05;;;0.60;99.90;;;;;;4986211;28;20505;-77
2021/12/21 13:21:47;;;;;;;13.30;10.38;;;0.60;99.90;;;;;;4981265;28;20038;-77